sensor_id;sensor_type;location;lat;lon;timestamp;P1;durP1;ratioP1;P2;durP2;ratioP2
18505;SDS011;9382;53.242;10.438;2023-04-01T00:00:46;8.23;;;3.90;;
18505;SDS011;9382;53.242;10.438;2023-04-01T00:03:13;8.57;;;4.27;;
18505;SDS011;9382;53.242;10.438;2023-04-01T00:05:40;11.80;;;4.00;;
18505;SDS011;9382;53.242;10.438;2023-04-01T00:08:07;13.00;;;4.07;;
18505;SDS011;9382;53.242;10.438;2023-04-01T00:10:33;9.33;;;4.30;;
18505;SDS011;9382;53.242;10.438;2023-04-01T00:13:00;10.20;;;3.87;;
18505;SDS011;9382;53.242;10.438;2023-04-01T00:15:27;7.17;;;3.77;;
18505;SDS011;9382;53.242;10.438;2023-04-01T00:17:55;9.73;;;4.33;;
18505;SDS011;9382;53.242;10.438;2023-04-01T00:20:22;5.57;;;4.27;;
18505;SDS011;9382;53.242;10.438;2023-04-01T00:22:49;9.33;;;4.27;;
18505;SDS011;9382;53.242;10.438;2023-04-01T00:25:16;8.93;;;4.20;;
18505;SDS011;9382;53.242;10.438;2023-04-01T00:27:43;6.47;;;3.83;;
18505;SDS011;9382;53.242;10.438;2023-04-01T00:30:10;8.87;;;4.20;;
18505;SDS011;9382;53.242;10.438;2023-04-01T00:32:37;11.63;;;4.60;;
18505;SDS011;9382;53.242;10.438;2023-04-01T00:35:06;11.67;;;4.20;;
18505;SDS011;9382;53.242;10.438;2023-04-01T00:37:34;6.20;;;4.17;;
18505;SDS011;9382;53.242;10.438;2023-04-01T00:40:02;11.17;;;4.40;;
18505;SDS011;9382;53.242;10.438;2023-04-01T00:42:30;7.97;;;3.93;;
18505;SDS011;9382;53.242;10.438;2023-04-01T00:44:57;7.47;;;4.10;;
18505;SDS011;9382;53.242;10.438;2023-04-01T00:47:23;12.73;;;4.57;;
18505;SDS011;9382;53.242;10.438;2023-04-01T00:49:53;7.47;;;4.33;;
18505;SDS011;9382;53.242;10.438;2023-04-01T00:52:23;12.70;;;4.67;;
18505;SDS011;9382;53.242;10.438;2023-04-01T00:54:53;9.53;;;4.60;;
18505;SDS011;9382;53.242;10.438;2023-04-01T00:57:27;9.00;;;4.43;;
18505;SDS011;9382;53.242;10.438;2023-04-01T00:59:56;8.70;;;4.10;;
18505;SDS011;9382;53.242;10.438;2023-04-01T01:02:24;7.57;;;4.50;;
18505;SDS011;9382;53.242;10.438;2023-04-01T01:04:51;7.17;;;4.07;;
18505;SDS011;9382;53.242;10.438;2023-04-01T01:07:22;7.10;;;4.47;;
18505;SDS011;9382;53.242;10.438;2023-04-01T01:10:01;8.87;;;4.17;;
18505;SDS011;9382;53.242;10.438;2023-04-01T01:12:34;11.93;;;4.10;;
18505;SDS011;9382;53.242;10.438;2023-04-01T01:15:07;15.53;;;4.83;;
18505;SDS011;9382;53.242;10.438;2023-04-01T01:17:43;11.53;;;3.93;;
18505;SDS011;9382;53.242;10.438;2023-04-01T01:20:18;7.50;;;4.10;;
18505;SDS011;9382;53.242;10.438;2023-04-01T01:25:59;8.30;;;3.70;;
18505;SDS011;9382;53.242;10.438;2023-04-01T01:28:58;13.33;;;4.07;;
18505;SDS011;9382;53.242;10.438;2023-04-01T01:31:33;8.63;;;4.03;;
18505;SDS011;9382;53.242;10.438;2023-04-01T01:34:06;7.60;;;3.90;;
18505;SDS011;9382;53.242;10.438;2023-04-01T01:36:42;7.80;;;3.77;;
18505;SDS011;9382;53.242;10.438;2023-04-01T01:39:14;8.53;;;3.57;;
18505;SDS011;9382;53.242;10.438;2023-04-01T01:41:42;6.57;;;3.83;;
18505;SDS011;9382;53.242;10.438;2023-04-01T01:44:12;9.13;;;4.10;;
18505;SDS011;9382;53.242;10.438;2023-04-01T01:46:40;9.77;;;3.83;;
18505;SDS011;9382;53.242;10.438;2023-04-01T01:49:08;6.30;;;3.80;;
18505;SDS011;9382;53.242;10.438;2023-04-01T01:51:38;6.93;;;3.20;;
18505;SDS011;9382;53.242;10.438;2023-04-01T01:54:06;10.97;;;3.93;;
18505;SDS011;9382;53.242;10.438;2023-04-01T01:56:33;7.37;;;3.97;;
18505;SDS011;9382;53.242;10.438;2023-04-01T01:59:02;10.93;;;4.17;;
18505;SDS011;9382;53.242;10.438;2023-04-01T02:01:34;9.20;;;3.80;;
18505;SDS011;9382;53.242;10.438;2023-04-01T02:04:05;7.97;;;3.80;;
18505;SDS011;9382;53.242;10.438;2023-04-01T02:06:34;8.13;;;3.57;;
18505;SDS011;9382;53.242;10.438;2023-04-01T02:09:06;7.37;;;3.47;;
18505;SDS011;9382;53.242;10.438;2023-04-01T02:11:38;8.40;;;3.50;;
18505;SDS011;9382;53.242;10.438;2023-04-01T02:14:10;8.43;;;3.60;;
18505;SDS011;9382;53.242;10.438;2023-04-01T02:16:42;11.73;;;3.40;;
18505;SDS011;9382;53.242;10.438;2023-04-01T02:19:12;7.47;;;3.10;;
18505;SDS011;9382;53.242;10.438;2023-04-01T02:21:47;10.07;;;3.87;;
18505;SDS011;9382;53.242;10.438;2023-04-01T02:24:18;6.70;;;3.53;;
18505;SDS011;9382;53.242;10.438;2023-04-01T02:26:47;9.37;;;3.63;;
18505;SDS011;9382;53.242;10.438;2023-04-01T02:29:16;9.67;;;3.50;;
18505;SDS011;9382;53.242;10.438;2023-04-01T02:31:45;9.13;;;3.40;;
18505;SDS011;9382;53.242;10.438;2023-04-01T02:34:12;4.57;;;3.40;;
18505;SDS011;9382;53.242;10.438;2023-04-01T02:36:40;8.17;;;3.60;;
18505;SDS011;9382;53.242;10.438;2023-04-01T02:39:07;6.60;;;3.80;;
18505;SDS011;9382;53.242;10.438;2023-04-01T02:41:39;7.43;;;3.73;;
18505;SDS011;9382;53.242;10.438;2023-04-01T02:44:06;6.90;;;3.90;;
18505;SDS011;9382;53.242;10.438;2023-04-01T02:46:34;7.77;;;3.90;;
18505;SDS011;9382;53.242;10.438;2023-04-01T02:49:01;7.33;;;4.20;;
18505;SDS011;9382;53.242;10.438;2023-04-01T02:51:28;6.67;;;4.13;;
18505;SDS011;9382;53.242;10.438;2023-04-01T02:53:55;9.03;;;3.83;;
18505;SDS011;9382;53.242;10.438;2023-04-01T02:56:21;8.27;;;4.13;;
18505;SDS011;9382;53.242;10.438;2023-04-01T02:58:49;5.83;;;4.10;;
18505;SDS011;9382;53.242;10.438;2023-04-01T03:01:16;8.50;;;3.97;;
18505;SDS011;9382;53.242;10.438;2023-04-01T03:03:43;7.40;;;4.37;;
18505;SDS011;9382;53.242;10.438;2023-04-01T03:06:11;11.50;;;4.13;;
18505;SDS011;9382;53.242;10.438;2023-04-01T03:08:40;9.70;;;4.00;;
18505;SDS011;9382;53.242;10.438;2023-04-01T03:11:07;5.87;;;3.57;;
18505;SDS011;9382;53.242;10.438;2023-04-01T03:13:34;10.70;;;3.87;;
18505;SDS011;9382;53.242;10.438;2023-04-01T03:16:03;7.70;;;4.03;;
18505;SDS011;9382;53.242;10.438;2023-04-01T03:18:30;8.87;;;4.00;;
18505;SDS011;9382;53.242;10.438;2023-04-01T03:20:57;8.50;;;4.17;;
18505;SDS011;9382;53.242;10.438;2023-04-01T03:23:23;8.50;;;4.03;;
18505;SDS011;9382;53.242;10.438;2023-04-01T03:25:50;9.73;;;4.27;;
18505;SDS011;9382;53.242;10.438;2023-04-01T03:28:17;6.53;;;3.80;;
18505;SDS011;9382;53.242;10.438;2023-04-01T03:30:43;8.23;;;3.87;;
18505;SDS011;9382;53.242;10.438;2023-04-01T03:33:12;11.37;;;4.30;;
18505;SDS011;9382;53.242;10.438;2023-04-01T03:35:38;6.77;;;3.60;;
18505;SDS011;9382;53.242;10.438;2023-04-01T03:38:05;11.07;;;4.17;;
18505;SDS011;9382;53.242;10.438;2023-04-01T03:40:32;4.67;;;3.50;;
18505;SDS011;9382;53.242;10.438;2023-04-01T03:43:02;7.30;;;3.70;;
18505;SDS011;9382;53.242;10.438;2023-04-01T03:45:33;6.67;;;3.60;;
18505;SDS011;9382;53.242;10.438;2023-04-01T03:47:59;8.37;;;4.03;;
18505;SDS011;9382;53.242;10.438;2023-04-01T03:50:28;7.53;;;3.90;;
18505;SDS011;9382;53.242;10.438;2023-04-01T03:52:54;8.57;;;3.90;;
18505;SDS011;9382;53.242;10.438;2023-04-01T03:55:21;7.30;;;4.40;;
18505;SDS011;9382;53.242;10.438;2023-04-01T03:57:48;9.10;;;3.90;;
18505;SDS011;9382;53.242;10.438;2023-04-01T04:00:15;11.10;;;4.30;;
18505;SDS011;9382;53.242;10.438;2023-04-01T04:02:42;7.80;;;4.20;;
18505;SDS011;9382;53.242;10.438;2023-04-01T04:05:08;11.13;;;4.20;;
18505;SDS011;9382;53.242;10.438;2023-04-01T04:07:37;9.07;;;4.13;;
18505;SDS011;9382;53.242;10.438;2023-04-01T04:10:04;5.80;;;4.00;;
18505;SDS011;9382;53.242;10.438;2023-04-01T04:12:31;8.63;;;4.00;;
18505;SDS011;9382;53.242;10.438;2023-04-01T04:14:58;8.10;;;4.20;;
18505;SDS011;9382;53.242;10.438;2023-04-01T04:17:25;7.37;;;3.80;;
18505;SDS011;9382;53.242;10.438;2023-04-01T04:19:51;9.30;;;4.77;;
18505;SDS011;9382;53.242;10.438;2023-04-01T04:22:18;8.60;;;4.57;;
18505;SDS011;9382;53.242;10.438;2023-04-01T04:24:46;9.40;;;4.40;;
18505;SDS011;9382;53.242;10.438;2023-04-01T04:27:13;10.67;;;4.50;;
18505;SDS011;9382;53.242;10.438;2023-04-01T04:29:40;11.10;;;5.00;;
18505;SDS011;9382;53.242;10.438;2023-04-01T04:32:07;9.67;;;4.73;;
18505;SDS011;9382;53.242;10.438;2023-04-01T04:34:33;6.20;;;4.40;;
18505;SDS011;9382;53.242;10.438;2023-04-01T04:37:00;12.90;;;5.20;;
18505;SDS011;9382;53.242;10.438;2023-04-01T04:39:27;12.20;;;5.10;;
18505;SDS011;9382;53.242;10.438;2023-04-01T04:41:55;12.57;;;5.73;;
18505;SDS011;9382;53.242;10.438;2023-04-01T04:44:22;11.17;;;5.70;;
18505;SDS011;9382;53.242;10.438;2023-04-01T04:46:48;12.80;;;4.90;;
18505;SDS011;9382;53.242;10.438;2023-04-01T04:49:15;10.03;;;4.97;;
18505;SDS011;9382;53.242;10.438;2023-04-01T04:51:42;9.63;;;5.23;;
18505;SDS011;9382;53.242;10.438;2023-04-01T04:54:09;10.20;;;4.73;;
18505;SDS011;9382;53.242;10.438;2023-04-01T04:56:36;9.30;;;4.70;;
18505;SDS011;9382;53.242;10.438;2023-04-01T04:59:04;13.90;;;4.73;;
18505;SDS011;9382;53.242;10.438;2023-04-01T05:01:32;10.33;;;5.00;;
18505;SDS011;9382;53.242;10.438;2023-04-01T05:03:59;11.10;;;4.80;;
18505;SDS011;9382;53.242;10.438;2023-04-01T05:06:25;10.53;;;4.57;;
18505;SDS011;9382;53.242;10.438;2023-04-01T05:08:54;10.50;;;5.20;;
18505;SDS011;9382;53.242;10.438;2023-04-01T05:11:22;11.40;;;4.90;;
18505;SDS011;9382;53.242;10.438;2023-04-01T05:13:50;9.97;;;5.17;;
18505;SDS011;9382;53.242;10.438;2023-04-01T05:16:19;12.13;;;5.00;;
18505;SDS011;9382;53.242;10.438;2023-04-01T05:18:46;11.40;;;5.53;;
18505;SDS011;9382;53.242;10.438;2023-04-01T05:21:13;12.17;;;5.47;;
18505;SDS011;9382;53.242;10.438;2023-04-01T05:23:41;11.23;;;5.00;;
18505;SDS011;9382;53.242;10.438;2023-04-01T05:26:09;9.30;;;5.57;;
18505;SDS011;9382;53.242;10.438;2023-04-01T05:28:37;12.37;;;5.33;;
18505;SDS011;9382;53.242;10.438;2023-04-01T05:31:04;13.40;;;5.30;;
18505;SDS011;9382;53.242;10.438;2023-04-01T05:33:33;11.03;;;5.73;;
18505;SDS011;9382;53.242;10.438;2023-04-01T05:36:05;11.47;;;5.47;;
18505;SDS011;9382;53.242;10.438;2023-04-01T05:38:33;11.00;;;5.70;;
18505;SDS011;9382;53.242;10.438;2023-04-01T05:41:00;14.53;;;5.93;;
18505;SDS011;9382;53.242;10.438;2023-04-01T05:43:27;10.97;;;4.80;;
18505;SDS011;9382;53.242;10.438;2023-04-01T05:45:54;12.17;;;5.20;;
18505;SDS011;9382;53.242;10.438;2023-04-01T05:48:21;11.20;;;5.00;;
18505;SDS011;9382;53.242;10.438;2023-04-01T05:50:49;9.10;;;4.87;;
18505;SDS011;9382;53.242;10.438;2023-04-01T05:53:16;9.70;;;4.50;;
18505;SDS011;9382;53.242;10.438;2023-04-01T05:55:43;13.40;;;4.93;;
18505;SDS011;9382;53.242;10.438;2023-04-01T05:58:09;10.60;;;4.77;;
18505;SDS011;9382;53.242;10.438;2023-04-01T06:00:36;10.00;;;4.77;;
18505;SDS011;9382;53.242;10.438;2023-04-01T06:03:03;11.03;;;4.80;;
18505;SDS011;9382;53.242;10.438;2023-04-01T06:05:30;10.40;;;4.80;;
18505;SDS011;9382;53.242;10.438;2023-04-01T06:08:09;9.93;;;5.00;;
18505;SDS011;9382;53.242;10.438;2023-04-01T06:10:39;8.93;;;5.27;;
18505;SDS011;9382;53.242;10.438;2023-04-01T06:13:16;18.47;;;6.13;;
18505;SDS011;9382;53.242;10.438;2023-04-01T06:15:51;9.40;;;5.40;;
18505;SDS011;9382;53.242;10.438;2023-04-01T06:21:27;9.03;;;5.23;;
18505;SDS011;9382;53.242;10.438;2023-04-01T06:24:20;11.77;;;5.10;;
18505;SDS011;9382;53.242;10.438;2023-04-01T06:27:03;9.43;;;4.93;;
18505;SDS011;9382;53.242;10.438;2023-04-01T06:29:41;9.43;;;4.90;;
18505;SDS011;9382;53.242;10.438;2023-04-01T06:35:24;10.03;;;5.30;;
18505;SDS011;9382;53.242;10.438;2023-04-01T06:38:14;11.37;;;4.93;;
18505;SDS011;9382;53.242;10.438;2023-04-01T06:41:02;7.77;;;4.93;;
18505;SDS011;9382;53.242;10.438;2023-04-01T06:43:49;12.27;;;5.73;;
18505;SDS011;9382;53.242;10.438;2023-04-01T06:46:24;11.73;;;5.73;;
18505;SDS011;9382;53.242;10.438;2023-04-01T06:49:06;6.00;;;4.60;;
18505;SDS011;9382;53.242;10.438;2023-04-01T06:51:47;6.17;;;3.40;;
18505;SDS011;9382;53.242;10.438;2023-04-01T06:54:20;3.40;;;2.80;;
18505;SDS011;9382;53.242;10.438;2023-04-01T06:56:54;2.80;;;2.60;;
18505;SDS011;9382;53.242;10.438;2023-04-01T06:59:27;4.20;;;2.20;;
18505;SDS011;9382;53.242;10.438;2023-04-01T07:01:57;2.20;;;2.00;;
18505;SDS011;9382;53.242;10.438;2023-04-01T07:04:28;2.40;;;1.90;;
18505;SDS011;9382;53.242;10.438;2023-04-01T07:06:57;1.63;;;1.63;;
18505;SDS011;9382;53.242;10.438;2023-04-01T07:09:26;2.27;;;1.90;;
18505;SDS011;9382;53.242;10.438;2023-04-01T07:12:01;2.40;;;2.30;;
18505;SDS011;9382;53.242;10.438;2023-04-01T07:14:32;2.37;;;1.90;;
18505;SDS011;9382;53.242;10.438;2023-04-01T07:17:03;2.87;;;2.00;;
18505;SDS011;9382;53.242;10.438;2023-04-01T07:19:34;1.97;;;1.87;;
18505;SDS011;9382;53.242;10.438;2023-04-01T07:22:10;2.00;;;1.90;;
18505;SDS011;9382;53.242;10.438;2023-04-01T07:24:47;2.00;;;1.90;;
18505;SDS011;9382;53.242;10.438;2023-04-01T07:27:16;2.27;;;1.90;;
18505;SDS011;9382;53.242;10.438;2023-04-01T07:29:43;2.23;;;2.00;;
18505;SDS011;9382;53.242;10.438;2023-04-01T07:32:13;2.20;;;2.00;;
18505;SDS011;9382;53.242;10.438;2023-04-01T07:35:01;1.80;;;1.70;;
18505;SDS011;9382;53.242;10.438;2023-04-01T07:37:42;1.60;;;1.50;;
18505;SDS011;9382;53.242;10.438;2023-04-01T07:40:19;1.90;;;1.80;;
18505;SDS011;9382;53.242;10.438;2023-04-01T07:45:49;1.77;;;1.67;;
18505;SDS011;9382;53.242;10.438;2023-04-01T07:48:25;2.27;;;1.70;;
18505;SDS011;9382;53.242;10.438;2023-04-01T07:51:00;2.50;;;2.00;;
18505;SDS011;9382;53.242;10.438;2023-04-01T07:53:31;2.13;;;1.93;;
18505;SDS011;9382;53.242;10.438;2023-04-01T07:56:04;1.90;;;1.80;;
18505;SDS011;9382;53.242;10.438;2023-04-01T07:58:36;2.07;;;1.97;;
18505;SDS011;9382;53.242;10.438;2023-04-01T08:01:12;1.83;;;1.70;;
18505;SDS011;9382;53.242;10.438;2023-04-01T08:03:50;2.00;;;1.80;;
18505;SDS011;9382;53.242;10.438;2023-04-01T08:06:28;1.40;;;1.40;;
18505;SDS011;9382;53.242;10.438;2023-04-01T08:09:00;1.73;;;1.63;;
18505;SDS011;9382;53.242;10.438;2023-04-01T08:11:41;1.70;;;1.30;;
18505;SDS011;9382;53.242;10.438;2023-04-01T08:14:19;1.50;;;1.40;;
18505;SDS011;9382;53.242;10.438;2023-04-01T08:16:54;1.43;;;1.40;;
18505;SDS011;9382;53.242;10.438;2023-04-01T08:19:30;1.50;;;1.40;;
18505;SDS011;9382;53.242;10.438;2023-04-01T08:22:08;1.70;;;1.60;;
18505;SDS011;9382;53.242;10.438;2023-04-01T08:24:43;2.03;;;1.47;;
18505;SDS011;9382;53.242;10.438;2023-04-01T08:27:13;1.70;;;1.60;;
18505;SDS011;9382;53.242;10.438;2023-04-01T08:29:48;1.60;;;1.60;;
18505;SDS011;9382;53.242;10.438;2023-04-01T08:32:22;1.90;;;1.80;;
18505;SDS011;9382;53.242;10.438;2023-04-01T08:34:57;1.80;;;1.70;;
18505;SDS011;9382;53.242;10.438;2023-04-01T08:37:34;1.90;;;1.80;;
18505;SDS011;9382;53.242;10.438;2023-04-01T08:40:10;3.80;;;1.83;;
18505;SDS011;9382;53.242;10.438;2023-04-01T08:42:58;1.80;;;1.70;;
18505;SDS011;9382;53.242;10.438;2023-04-01T08:45:43;1.70;;;1.60;;
18505;SDS011;9382;53.242;10.438;2023-04-01T08:48:23;1.73;;;1.73;;
18505;SDS011;9382;53.242;10.438;2023-04-01T08:51:09;1.60;;;1.50;;
18505;SDS011;9382;53.242;10.438;2023-04-01T08:54:02;2.97;;;1.93;;
18505;SDS011;9382;53.242;10.438;2023-04-01T08:56:59;1.83;;;1.70;;
18505;SDS011;9382;53.242;10.438;2023-04-01T08:59:47;1.70;;;1.60;;
18505;SDS011;9382;53.242;10.438;2023-04-01T09:02:28;1.60;;;1.50;;
18505;SDS011;9382;53.242;10.438;2023-04-01T09:05:18;1.73;;;1.50;;
18505;SDS011;9382;53.242;10.438;2023-04-01T09:08:16;1.47;;;1.47;;
18505;SDS011;9382;53.242;10.438;2023-04-01T09:13:48;1.80;;;1.70;;
18505;SDS011;9382;53.242;10.438;2023-04-01T09:17:01;1.80;;;1.70;;
18505;SDS011;9382;53.242;10.438;2023-04-01T09:19:50;2.63;;;1.47;;
18505;SDS011;9382;53.242;10.438;2023-04-01T09:22:37;1.60;;;1.50;;
18505;SDS011;9382;53.242;10.438;2023-04-01T09:25:20;1.93;;;1.60;;
18505;SDS011;9382;53.242;10.438;2023-04-01T09:27:56;1.60;;;1.60;;
18505;SDS011;9382;53.242;10.438;2023-04-01T09:30:38;1.50;;;1.50;;
18505;SDS011;9382;53.242;10.438;2023-04-01T09:36:20;1.93;;;1.70;;
18505;SDS011;9382;53.242;10.438;2023-04-01T09:38:59;1.80;;;1.70;;
18505;SDS011;9382;53.242;10.438;2023-04-01T09:41:41;1.80;;;1.70;;
18505;SDS011;9382;53.242;10.438;2023-04-01T09:44:18;2.47;;;2.00;;
18505;SDS011;9382;53.242;10.438;2023-04-01T09:46:55;2.97;;;2.57;;
18505;SDS011;9382;53.242;10.438;2023-04-01T09:52:30;2.40;;;2.20;;
18505;SDS011;9382;53.242;10.438;2023-04-01T10:01:26;2.43;;;2.23;;
18505;SDS011;9382;53.242;10.438;2023-04-01T10:04:23;2.30;;;2.10;;
18505;SDS011;9382;53.242;10.438;2023-04-01T10:13:32;2.37;;;2.17;;
18505;SDS011;9382;53.242;10.438;2023-04-01T10:16:25;2.67;;;1.90;;
18505;SDS011;9382;53.242;10.438;2023-04-01T10:19:26;3.40;;;2.20;;
18505;SDS011;9382;53.242;10.438;2023-04-01T10:25:12;7.60;;;1.93;;
18505;SDS011;9382;53.242;10.438;2023-04-01T10:28:01;2.00;;;1.90;;
18505;SDS011;9382;53.242;10.438;2023-04-01T10:31:01;3.90;;;2.10;;
18505;SDS011;9382;53.242;10.438;2023-04-01T10:33:47;3.40;;;3.10;;
18505;SDS011;9382;53.242;10.438;2023-04-01T10:36:34;2.80;;;2.60;;
18505;SDS011;9382;53.242;10.438;2023-04-01T10:45:25;2.10;;;2.00;;
18505;SDS011;9382;53.242;10.438;2023-04-01T10:48:31;2.60;;;2.20;;
18505;SDS011;9382;53.242;10.438;2023-04-01T10:51:40;2.27;;;2.17;;
18505;SDS011;9382;53.242;10.438;2023-04-01T10:54:36;2.43;;;2.10;;
18505;SDS011;9382;53.242;10.438;2023-04-01T10:57:15;1.50;;;1.50;;
18505;SDS011;9382;53.242;10.438;2023-04-01T11:00:10;1.50;;;1.40;;
18505;SDS011;9382;53.242;10.438;2023-04-01T11:03:03;2.00;;;1.90;;
18505;SDS011;9382;53.242;10.438;2023-04-01T11:12:36;1.63;;;1.53;;
18505;SDS011;9382;53.242;10.438;2023-04-01T11:15:31;1.70;;;1.60;;
18505;SDS011;9382;53.242;10.438;2023-04-01T11:24:37;2.30;;;2.10;;
18505;SDS011;9382;53.242;10.438;2023-04-01T11:27:19;2.23;;;1.43;;
18505;SDS011;9382;53.242;10.438;2023-04-01T11:30:10;2.43;;;2.33;;
18505;SDS011;9382;53.242;10.438;2023-04-01T11:32:50;1.80;;;1.70;;
18505;SDS011;9382;53.242;10.438;2023-04-01T11:35:26;1.70;;;1.40;;
18505;SDS011;9382;53.242;10.438;2023-04-01T11:38:04;2.13;;;1.47;;
18505;SDS011;9382;53.242;10.438;2023-04-01T11:40:41;1.60;;;1.53;;
18505;SDS011;9382;53.242;10.438;2023-04-01T11:43:16;1.50;;;1.40;;
18505;SDS011;9382;53.242;10.438;2023-04-01T11:45:49;1.70;;;1.60;;
18505;SDS011;9382;53.242;10.438;2023-04-01T11:48:27;1.47;;;1.40;;
18505;SDS011;9382;53.242;10.438;2023-04-01T11:54:12;1.80;;;1.70;;
18505;SDS011;9382;53.242;10.438;2023-04-01T11:56:53;1.60;;;1.47;;
18505;SDS011;9382;53.242;10.438;2023-04-01T11:59:33;1.60;;;1.60;;
18505;SDS011;9382;53.242;10.438;2023-04-01T12:02:25;2.20;;;1.50;;
18505;SDS011;9382;53.242;10.438;2023-04-01T12:05:04;1.60;;;1.50;;
18505;SDS011;9382;53.242;10.438;2023-04-01T12:07:53;1.50;;;1.50;;
18505;SDS011;9382;53.242;10.438;2023-04-01T12:10:32;1.63;;;1.50;;
18505;SDS011;9382;53.242;10.438;2023-04-01T12:13:04;1.70;;;1.60;;
18505;SDS011;9382;53.242;10.438;2023-04-01T12:15:50;1.57;;;1.50;;
18505;SDS011;9382;53.242;10.438;2023-04-01T12:18:28;3.10;;;2.37;;
18505;SDS011;9382;53.242;10.438;2023-04-01T12:21:05;2.77;;;2.57;;
18505;SDS011;9382;53.242;10.438;2023-04-01T12:23:53;2.63;;;2.43;;
18505;SDS011;9382;53.242;10.438;2023-04-01T12:26:47;2.50;;;2.30;;
18505;SDS011;9382;53.242;10.438;2023-04-01T12:29:28;2.60;;;2.40;;
18505;SDS011;9382;53.242;10.438;2023-04-01T12:32:21;2.70;;;2.50;;
18505;SDS011;9382;53.242;10.438;2023-04-01T12:34:57;2.60;;;2.40;;
18505;SDS011;9382;53.242;10.438;2023-04-01T12:37:39;2.67;;;2.47;;
18505;SDS011;9382;53.242;10.438;2023-04-01T12:40:20;4.17;;;2.30;;
18505;SDS011;9382;53.242;10.438;2023-04-01T12:43:02;2.40;;;2.27;;
18505;SDS011;9382;53.242;10.438;2023-04-01T12:45:49;2.40;;;2.20;;
18505;SDS011;9382;53.242;10.438;2023-04-01T12:48:39;2.60;;;2.40;;
18505;SDS011;9382;53.242;10.438;2023-04-01T12:51:44;4.57;;;3.37;;
18505;SDS011;9382;53.242;10.438;2023-04-01T12:54:31;3.63;;;3.33;;
18505;SDS011;9382;53.242;10.438;2023-04-01T12:57:37;4.10;;;3.60;;
18505;SDS011;9382;53.242;10.438;2023-04-01T13:03:14;6.13;;;3.77;;
18505;SDS011;9382;53.242;10.438;2023-04-01T13:06:00;4.53;;;3.50;;
18505;SDS011;9382;53.242;10.438;2023-04-01T13:08:47;4.37;;;3.20;;
18505;SDS011;9382;53.242;10.438;2023-04-01T13:11:23;4.63;;;3.60;;
18505;SDS011;9382;53.242;10.438;2023-04-01T13:14:04;3.97;;;3.40;;
18505;SDS011;9382;53.242;10.438;2023-04-01T13:16:56;3.70;;;3.27;;
18505;SDS011;9382;53.242;10.438;2023-04-01T13:19:28;3.70;;;3.40;;
18505;SDS011;9382;53.242;10.438;2023-04-01T13:22:03;5.63;;;3.80;;
18505;SDS011;9382;53.242;10.438;2023-04-01T13:24:44;4.60;;;3.80;;
18505;SDS011;9382;53.242;10.438;2023-04-01T13:27:18;6.30;;;4.10;;
18505;SDS011;9382;53.242;10.438;2023-04-01T13:29:57;6.17;;;3.97;;
18505;SDS011;9382;53.242;10.438;2023-04-01T13:32:36;7.47;;;3.83;;
18505;SDS011;9382;53.242;10.438;2023-04-01T13:35:11;5.67;;;3.83;;
18505;SDS011;9382;53.242;10.438;2023-04-01T13:37:54;6.17;;;4.07;;
18505;SDS011;9382;53.242;10.438;2023-04-01T13:40:36;4.20;;;3.53;;
18505;SDS011;9382;53.242;10.438;2023-04-01T13:43:12;7.73;;;3.77;;
18505;SDS011;9382;53.242;10.438;2023-04-01T13:48:57;5.77;;;4.57;;
18505;SDS011;9382;53.242;10.438;2023-04-01T13:51:52;5.83;;;3.87;;
18505;SDS011;9382;53.242;10.438;2023-04-01T13:54:44;4.27;;;3.87;;
18505;SDS011;9382;53.242;10.438;2023-04-01T13:57:27;6.57;;;3.90;;
18505;SDS011;9382;53.242;10.438;2023-04-01T14:00:16;4.40;;;3.73;;
18505;SDS011;9382;53.242;10.438;2023-04-01T14:02:56;4.90;;;4.00;;
18505;SDS011;9382;53.242;10.438;2023-04-01T14:05:53;5.37;;;3.90;;
18505;SDS011;9382;53.242;10.438;2023-04-01T14:08:30;5.83;;;3.70;;
18505;SDS011;9382;53.242;10.438;2023-04-01T14:11:16;6.63;;;4.20;;
18505;SDS011;9382;53.242;10.438;2023-04-01T14:13:52;4.60;;;4.03;;
18505;SDS011;9382;53.242;10.438;2023-04-01T14:19:31;5.90;;;4.27;;
18505;SDS011;9382;53.242;10.438;2023-04-01T14:22:25;4.83;;;4.30;;
18505;SDS011;9382;53.242;10.438;2023-04-01T14:25:03;5.90;;;4.47;;
18505;SDS011;9382;53.242;10.438;2023-04-01T14:27:50;5.33;;;4.07;;
18505;SDS011;9382;53.242;10.438;2023-04-01T14:30:35;5.20;;;3.87;;
18505;SDS011;9382;53.242;10.438;2023-04-01T14:33:28;4.40;;;4.00;;
18505;SDS011;9382;53.242;10.438;2023-04-01T14:36:18;6.90;;;4.63;;
18505;SDS011;9382;53.242;10.438;2023-04-01T14:39:07;4.37;;;3.80;;
18505;SDS011;9382;53.242;10.438;2023-04-01T14:41:47;5.13;;;3.93;;
18505;SDS011;9382;53.242;10.438;2023-04-01T14:44:18;5.33;;;4.13;;
18505;SDS011;9382;53.242;10.438;2023-04-01T14:47:13;5.20;;;4.20;;
18505;SDS011;9382;53.242;10.438;2023-04-01T14:49:51;5.50;;;4.30;;
18505;SDS011;9382;53.242;10.438;2023-04-01T14:52:22;6.60;;;4.23;;
18505;SDS011;9382;53.242;10.438;2023-04-01T14:54:54;7.23;;;5.00;;
18505;SDS011;9382;53.242;10.438;2023-04-01T14:57:24;8.97;;;6.00;;
18505;SDS011;9382;53.242;10.438;2023-04-01T14:59:53;6.87;;;4.77;;
18505;SDS011;9382;53.242;10.438;2023-04-01T15:02:33;6.63;;;4.50;;
18505;SDS011;9382;53.242;10.438;2023-04-01T15:05:10;6.03;;;4.43;;
18505;SDS011;9382;53.242;10.438;2023-04-01T15:07:53;5.53;;;4.17;;
18505;SDS011;9382;53.242;10.438;2023-04-01T15:10:53;6.57;;;4.87;;
18505;SDS011;9382;53.242;10.438;2023-04-01T15:13:48;8.90;;;4.80;;
18505;SDS011;9382;53.242;10.438;2023-04-01T15:16:31;5.43;;;4.80;;
18505;SDS011;9382;53.242;10.438;2023-04-01T15:19:08;6.40;;;4.90;;
18505;SDS011;9382;53.242;10.438;2023-04-01T15:21:48;7.50;;;5.00;;
18505;SDS011;9382;53.242;10.438;2023-04-01T15:24:24;6.97;;;5.63;;
18505;SDS011;9382;53.242;10.438;2023-04-01T15:27:04;9.07;;;5.43;;
18505;SDS011;9382;53.242;10.438;2023-04-01T15:29:41;9.10;;;5.33;;
18505;SDS011;9382;53.242;10.438;2023-04-01T15:32:17;8.43;;;5.50;;
18505;SDS011;9382;53.242;10.438;2023-04-01T15:34:50;6.90;;;5.30;;
18505;SDS011;9382;53.242;10.438;2023-04-01T15:37:28;8.07;;;5.70;;
18505;SDS011;9382;53.242;10.438;2023-04-01T15:40:05;9.07;;;5.27;;
18505;SDS011;9382;53.242;10.438;2023-04-01T15:42:48;8.53;;;5.50;;
18505;SDS011;9382;53.242;10.438;2023-04-01T15:45:30;9.13;;;5.60;;
18505;SDS011;9382;53.242;10.438;2023-04-01T15:48:06;6.60;;;5.47;;
18505;SDS011;9382;53.242;10.438;2023-04-01T15:50:54;10.43;;;6.13;;
18505;SDS011;9382;53.242;10.438;2023-04-01T15:53:42;8.20;;;5.97;;
18505;SDS011;9382;53.242;10.438;2023-04-01T15:56:26;10.10;;;5.70;;
18505;SDS011;9382;53.242;10.438;2023-04-01T15:59:12;7.50;;;5.43;;
18505;SDS011;9382;53.242;10.438;2023-04-01T16:01:50;8.90;;;5.43;;
18505;SDS011;9382;53.242;10.438;2023-04-01T16:04:31;7.77;;;5.50;;
18505;SDS011;9382;53.242;10.438;2023-04-01T16:07:17;10.17;;;5.77;;
18505;SDS011;9382;53.242;10.438;2023-04-01T16:10:07;9.97;;;5.87;;
18505;SDS011;9382;53.242;10.438;2023-04-01T16:12:49;11.77;;;6.20;;
18505;SDS011;9382;53.242;10.438;2023-04-01T16:15:28;8.83;;;5.83;;
18505;SDS011;9382;53.242;10.438;2023-04-01T16:18:15;9.80;;;6.10;;
18505;SDS011;9382;53.242;10.438;2023-04-01T16:20:51;11.20;;;6.30;;
18505;SDS011;9382;53.242;10.438;2023-04-01T16:23:24;10.77;;;6.30;;
18505;SDS011;9382;53.242;10.438;2023-04-01T16:25:58;14.00;;;6.77;;
18505;SDS011;9382;53.242;10.438;2023-04-01T16:28:32;12.17;;;7.00;;
18505;SDS011;9382;53.242;10.438;2023-04-01T16:31:06;9.47;;;6.00;;
18505;SDS011;9382;53.242;10.438;2023-04-01T16:33:38;14.87;;;7.53;;
18505;SDS011;9382;53.242;10.438;2023-04-01T16:36:16;10.97;;;6.83;;
18505;SDS011;9382;53.242;10.438;2023-04-01T16:38:52;11.77;;;7.20;;
18505;SDS011;9382;53.242;10.438;2023-04-01T16:41:35;13.80;;;6.90;;
18505;SDS011;9382;53.242;10.438;2023-04-01T16:44:09;17.67;;;7.80;;
18505;SDS011;9382;53.242;10.438;2023-04-01T16:46:45;14.17;;;7.43;;